X  CloseMetar Aviation Weather Data     ENZV Stavanger , Sola

Temperature

19°C Temperature

9°C Dewpoint

52% Humidity



Wind

16 KM/H

10 MPH

 4 M/S

 9 KTS



100°
Due East
Current Conditions

Partly Cloudy Partly Cloudy
Pressure 1013.92 (hPa) - 29.94 (in)
Visibility 6.2 (mi) - 10 (km)
Airport
Airport-code ENZV

Location Stavanger , Sola 100 (km)

Metar:
ENZV 231050Z 10009KT 9999 FEW025 19/09 Q1014 TEMPO 12015G25KT

Time: 23-09-2019 12:50